createdAt,value
2018-07-19T00:00:34.533Z,73.10
2018-07-19T00:03:09.589Z,73.40
2018-07-19T00:05:45.051Z,73.80
2018-07-19T00:08:20.875Z,74.50
2018-07-19T00:10:56.727Z,74.90
2018-07-19T00:13:32.082Z,76.00
2018-07-19T00:16:08.223Z,75.90
2018-07-19T00:18:44.215Z,76.30
2018-07-19T00:21:19.332Z,76.60
2018-07-19T00:23:54.560Z,76.90
2018-07-19T00:26:30.159Z,77.40
2018-07-19T00:29:05.468Z,77.30
2018-07-19T00:31:40.593Z,77.80
2018-07-19T00:34:15.905Z,78.10
2018-07-19T00:36:51.231Z,78.30
2018-07-19T00:39:26.862Z,78.50
2018-07-19T00:42:02.650Z,78.80
2018-07-19T00:44:38.393Z,79.30
2018-07-19T00:47:13.762Z,79.60
2018-07-19T00:49:49.834Z,80.10
2018-07-19T00:52:25.159Z,80.30
2018-07-19T00:55:00.409Z,80.70
2018-07-19T00:57:35.857Z,81.00
2018-07-19T01:00:12.046Z,81.40
2018-07-19T01:02:47.988Z,81.70
2018-07-19T01:05:23.244Z,81.90
2018-07-19T01:07:58.463Z,82.10
2018-07-19T01:10:34.313Z,82.40
2018-07-19T01:13:09.709Z,83.30
2018-07-19T01:15:45.103Z,84.40
2018-07-19T01:18:20.729Z,85.40
2018-07-19T01:20:56.163Z,86.00
2018-07-19T01:23:31.181Z,86.50
2018-07-19T01:26:06.693Z,86.80
2018-07-19T01:28:42.336Z,86.90
2018-07-19T01:31:18.010Z,86.40
2018-07-19T01:33:53.745Z,86.20
2018-07-19T01:36:28.979Z,86.00
2018-07-19T01:39:05.065Z,86.30
2018-07-19T01:42:20.654Z,86.50
2018-07-19T01:44:55.972Z,86.40
2018-07-19T01:47:31.214Z,86.60
2018-07-19T01:50:07.797Z,87.00
2018-07-19T01:52:43.126Z,87.60
2018-07-19T01:55:18.504Z,87.80
2018-07-19T01:57:53.587Z,88.10
2018-07-19T02:00:28.697Z,88.50
2018-07-19T02:03:04.466Z,88.80
2018-07-19T02:05:40.115Z,89.00
2018-07-19T02:08:16.701Z,88.90
2018-07-19T02:10:52.605Z,89.50
2018-07-19T02:13:28.073Z,89.80
2018-07-19T02:16:04.072Z,90.30
2018-07-19T02:18:39.851Z,90.60
2018-07-19T02:21:14.984Z,90.90
2018-07-19T02:23:50.080Z,91.10
2018-07-19T02:26:25.385Z,91.40
2018-07-19T02:29:01.112Z,91.50
2018-07-19T02:31:37.375Z,91.70
2018-07-19T02:34:13.051Z,91.80
2018-07-19T02:36:49.365Z,91.90
2018-07-19T02:39:24.705Z,91.90
2018-07-19T02:42:00.408Z,91.80
2018-07-19T02:44:35.997Z,91.80
2018-07-19T02:47:11.207Z,91.90
2018-07-19T02:49:46.578Z,92.10
2018-07-19T02:52:21.661Z,92.10
2018-07-19T02:54:57.012Z,92.10
2018-07-19T02:57:32.362Z,92.30
2018-07-19T03:00:07.809Z,92.30
2018-07-19T03:02:43.129Z,92.30
2018-07-19T03:05:18.435Z,92.30
2018-07-19T03:07:54.238Z,92.10
2018-07-19T03:10:29.694Z,92.00
2018-07-19T03:13:05.217Z,92.10
2018-07-19T03:15:40.396Z,92.10
2018-07-19T03:18:16.198Z,92.10
2018-07-19T03:20:50.997Z,92.20
2018-07-19T03:23:26.024Z,92.30
2018-07-19T03:26:01.227Z,92.10
2018-07-19T03:28:36.709Z,92.10
2018-07-19T03:31:12.017Z,92.10
2018-07-19T03:33:47.346Z,91.90
2018-07-19T03:36:23.848Z,91.80
2018-07-19T03:38:58.937Z,91.70
2018-07-19T03:44:08.935Z,91.40
2018-07-19T03:46:44.122Z,91.30
2018-07-19T03:49:19.573Z,91.00
2018-07-19T03:51:55.148Z,90.70
2018-07-19T03:54:30.138Z,90.50
2018-07-19T03:57:05.894Z,90.70
2018-07-19T03:59:40.937Z,90.40
2018-07-19T04:02:16.310Z,90.30
2018-07-19T04:04:51.821Z,90.30
2018-07-19T04:07:27.207Z,90.20
2018-07-19T04:10:02.129Z,90.10
2018-07-19T04:12:37.687Z,90.00
2018-07-19T04:15:12.773Z,89.60
2018-07-19T04:17:52.819Z,89.60
2018-07-19T04:20:30.991Z,89.50
2018-07-19T04:23:06.511Z,89.90
2018-07-19T04:25:41.433Z,89.90
2018-07-19T04:28:16.616Z,90.20
2018-07-19T04:30:51.904Z,90.20
2018-07-19T04:33:27.568Z,90.10
2018-07-19T04:36:02.730Z,90.20
2018-07-19T04:38:37.784Z,90.20
2018-07-19T04:41:13.478Z,90.30
2018-07-19T04:43:49.227Z,90.50
2018-07-19T04:46:25.431Z,90.70
2018-07-19T04:49:00.654Z,90.90
2018-07-19T04:51:35.772Z,90.80
2018-07-19T04:54:11.047Z,90.90
2018-07-19T04:56:46.268Z,90.90
2018-07-19T04:59:21.356Z,90.70
2018-07-19T05:01:56.802Z,90.50
2018-07-19T05:04:32.404Z,90.30
2018-07-19T05:09:42.955Z,89.50
2018-07-19T05:12:22.118Z,89.00
2018-07-19T05:14:57.958Z,88.50
2018-07-19T05:17:35.014Z,88.10
2018-07-19T05:20:10.658Z,87.80
2018-07-19T05:22:45.994Z,87.70
2018-07-19T05:25:21.160Z,87.90
2018-07-19T05:27:56.771Z,87.50
2018-07-19T05:30:32.492Z,87.10
2018-07-19T05:33:08.334Z,86.80
2018-07-19T05:35:44.714Z,86.60
2018-07-19T05:38:20.315Z,86.30
2018-07-19T05:40:55.500Z,86.80
2018-07-19T05:43:31.047Z,85.80
2018-07-19T05:46:07.217Z,85.40
2018-07-19T05:48:43.070Z,85.30
2018-07-19T05:51:18.740Z,85.30
2018-07-19T05:53:53.900Z,85.20
2018-07-19T05:56:29.524Z,84.70
2018-07-19T05:59:04.984Z,84.30
2018-07-19T06:01:40.418Z,83.90
2018-07-19T06:04:15.689Z,83.20
2018-07-19T06:06:51.176Z,82.80
2018-07-19T06:09:26.223Z,82.60
2018-07-19T06:12:02.245Z,82.40
2018-07-19T06:14:37.467Z,82.10
2018-07-19T06:17:13.386Z,81.90
2018-07-19T06:19:48.777Z,81.80
2018-07-19T06:22:24.589Z,81.60
2018-07-19T06:25:00.668Z,81.40
2018-07-19T06:27:36.740Z,81.20
2018-07-19T06:30:12.887Z,80.20
2018-07-19T06:32:48.751Z,79.70
2018-07-19T06:35:24.372Z,79.50
2018-07-19T06:38:00.085Z,79.60
2018-07-19T06:40:35.473Z,79.70
2018-07-19T06:43:11.184Z,79.90
2018-07-19T06:45:47.487Z,80.00
2018-07-19T06:48:23.282Z,80.10
2018-07-19T06:50:58.497Z,80.60
2018-07-19T06:53:34.426Z,80.70
2018-07-19T06:56:09.819Z,80.70
2018-07-19T06:58:45.743Z,80.60
2018-07-19T07:01:20.981Z,80.00
2018-07-19T07:03:56.453Z,79.40
2018-07-19T07:09:09.813Z,79.70
2018-07-19T07:11:44.907Z,79.20
2018-07-19T07:14:20.764Z,79.10
2018-07-19T07:16:56.176Z,79.50
2018-07-19T07:19:31.802Z,79.40
2018-07-19T07:22:06.947Z,79.40
2018-07-19T07:24:44.307Z,79.70
2018-07-19T07:27:21.667Z,80.10
2018-07-19T07:30:08.550Z,80.40
2018-07-19T07:32:46.279Z,80.60
2018-07-19T07:35:28.164Z,80.60
2018-07-19T07:38:04.676Z,80.10
2018-07-19T07:40:42.562Z,79.70
2018-07-19T07:43:20.032Z,79.00
2018-07-19T07:45:55.690Z,78.70
2018-07-19T07:48:34.550Z,78.20
2018-07-19T07:51:10.387Z,78.00
2018-07-19T07:53:45.945Z,77.90
2018-07-19T07:56:21.863Z,78.90
2018-07-19T07:58:57.140Z,77.30
2018-07-19T08:01:32.380Z,76.70
2018-07-19T08:04:07.911Z,76.40
2018-07-19T08:06:44.067Z,76.20
2018-07-19T08:09:19.710Z,76.60
2018-07-19T08:11:55.057Z,77.00
2018-07-19T08:14:30.173Z,76.70
2018-07-19T08:17:06.141Z,76.70
2018-07-19T08:19:41.585Z,76.50
2018-07-19T08:22:16.659Z,76.50
2018-07-19T08:24:52.103Z,76.10
2018-07-19T08:27:27.304Z,76.30
2018-07-19T08:30:03.176Z,76.80
2018-07-19T08:32:38.661Z,77.70
2018-07-19T08:35:18.398Z,77.50
2018-07-19T08:37:53.928Z,76.80
2018-07-19T08:40:29.224Z,76.70
2018-07-19T08:43:05.015Z,76.30
2018-07-19T08:45:41.139Z,75.90
2018-07-19T08:48:16.246Z,76.00
2018-07-19T08:50:51.898Z,75.90
2018-07-19T08:53:26.933Z,76.00
2018-07-19T08:56:02.137Z,76.40
2018-07-19T08:58:37.770Z,76.10
2018-07-19T09:01:13.253Z,76.20
2018-07-19T09:03:49.336Z,75.80
2018-07-19T09:06:24.616Z,75.40
2018-07-19T09:09:00.268Z,75.20
2018-07-19T09:11:36.390Z,75.00
2018-07-19T09:14:11.813Z,74.50
2018-07-19T09:16:56.172Z,75.90
2018-07-19T09:19:35.463Z,75.80
2018-07-19T09:22:13.344Z,74.90
2018-07-19T09:24:48.745Z,74.50
2018-07-19T09:27:25.388Z,72.90
2018-07-19T09:30:03.601Z,91.40
2018-07-19T09:32:47.212Z,72.30
2018-07-19T09:35:22.308Z,71.40
2018-07-19T09:37:59.118Z,70.60
2018-07-19T09:40:34.827Z,69.90
2018-07-19T09:43:10.007Z,69.40
2018-07-19T09:45:49.402Z,67.70
2018-07-19T09:51:00.380Z,83.10
2018-07-19T09:53:35.779Z,67.00
2018-07-19T09:56:11.003Z,66.10
2018-07-19T09:58:46.212Z,66.50
2018-07-19T10:01:22.020Z,66.80
2018-07-19T10:03:57.145Z,65.70
2018-07-19T10:09:08.050Z,63.00
2018-07-19T10:11:43.018Z,62.60
2018-07-19T10:14:19.315Z,60.10
2018-07-19T10:16:55.305Z,60.30
2018-07-19T10:19:30.564Z,62.70
2018-07-19T10:22:05.723Z,62.00
2018-07-19T10:24:41.567Z,63.00
2018-07-19T10:27:17.332Z,61.80
2018-07-19T10:29:52.589Z,63.30
2018-07-19T10:32:27.911Z,65.90
2018-07-19T10:35:03.274Z,65.60
2018-07-19T10:37:38.272Z,65.80
2018-07-19T10:40:13.886Z,62.80
2018-07-19T10:42:49.180Z,60.30
2018-07-19T10:45:23.881Z,61.90
2018-07-19T10:50:38.792Z,61.10
2018-07-19T10:53:14.064Z,62.50
2018-07-19T10:55:49.292Z,61.70
2018-07-19T10:58:25.277Z,59.60
2018-07-19T11:01:00.894Z,59.70
2018-07-19T11:03:36.095Z,59.70
2018-07-19T11:06:11.050Z,58.20
2018-07-19T11:11:21.829Z,58.50
2018-07-19T11:13:57.267Z,59.10
2018-07-19T11:16:32.755Z,57.90
2018-07-19T11:19:08.610Z,58.30
2018-07-19T11:21:43.721Z,58.40
2018-07-19T11:24:19.135Z,57.00
2018-07-19T11:26:54.045Z,56.00
2018-07-19T11:29:29.765Z,56.00
2018-07-19T11:32:04.751Z,56.60
2018-07-19T11:34:39.894Z,55.70
2018-07-19T11:37:15.522Z,55.90
2018-07-19T11:42:26.056Z,64.10
2018-07-19T11:45:01.361Z,57.10
2018-07-19T11:50:11.110Z,57.50
2018-07-19T11:52:46.032Z,57.30
2018-07-19T11:55:21.598Z,57.40
2018-07-19T11:57:56.610Z,56.70
2018-07-19T12:00:31.685Z,56.10
2018-07-19T12:03:07.929Z,56.00
2018-07-19T12:05:43.016Z,55.80
2018-07-19T12:08:18.020Z,55.60
2018-07-19T12:10:53.168Z,54.40
2018-07-19T12:13:28.181Z,54.70
2018-07-19T12:16:03.755Z,54.60
2018-07-19T12:18:39.438Z,54.10
2018-07-19T12:21:14.493Z,53.60
2018-07-19T12:23:49.555Z,53.50
2018-07-19T12:26:25.451Z,53.80
2018-07-19T12:31:35.034Z,53.80
2018-07-19T12:34:10.180Z,53.40
2018-07-19T12:36:45.416Z,52.90
2018-07-19T12:39:20.888Z,52.80
2018-07-19T12:41:55.907Z,52.30
2018-07-19T12:44:30.576Z,52.80
2018-07-19T12:49:40.797Z,50.70
2018-07-19T12:52:17.595Z,50.70
2018-07-19T12:54:53.047Z,50.80
2018-07-19T12:57:38.749Z,49.90
2018-07-19T13:00:39.788Z,49.90
2018-07-19T13:03:34.917Z,50.10
2018-07-19T13:06:10.197Z,50.90
2018-07-19T13:08:48.241Z,50.20
2018-07-19T13:11:25.709Z,49.70
2018-07-19T13:14:02.503Z,49.30
2018-07-19T13:16:39.849Z,48.70
2018-07-19T13:19:16.499Z,48.90
2018-07-19T13:21:54.971Z,48.80
2018-07-19T13:24:31.370Z,48.70
2018-07-19T13:27:07.715Z,49.80
2018-07-19T13:29:42.688Z,50.60
2018-07-19T13:32:19.451Z,50.70
2018-07-19T13:34:57.349Z,50.60
2018-07-19T13:37:32.348Z,51.50
2018-07-19T13:40:08.423Z,50.50
2018-07-19T13:42:43.434Z,50.20
2018-07-19T13:45:12.984Z,49.80
2018-07-19T13:47:42.233Z,49.90
2018-07-19T13:50:12.378Z,50.00
2018-07-19T13:52:53.159Z,50.20
2018-07-19T13:55:23.250Z,50.40
2018-07-19T13:57:58.463Z,50.60
2018-07-19T14:00:33.301Z,50.50
2018-07-19T14:03:08.577Z,50.30
2018-07-19T14:05:43.743Z,49.50
2018-07-19T14:08:18.843Z,49.90
2018-07-19T14:10:54.338Z,49.40
2018-07-19T14:13:29.476Z,49.40
2018-07-19T14:16:04.521Z,49.30
2018-07-19T14:18:40.197Z,49.90
2018-07-19T14:21:15.326Z,49.40
2018-07-19T14:23:50.247Z,48.50
2018-07-19T14:26:23.119Z,47.30
2018-07-19T14:28:58.384Z,48.80
2018-07-19T14:31:33.771Z,49.30
2018-07-19T14:34:08.788Z,48.90
2018-07-19T14:36:44.028Z,49.50
2018-07-19T14:39:19.232Z,48.90
2018-07-19T14:41:54.521Z,48.00
2018-07-19T14:44:30.543Z,48.60
2018-07-19T14:47:00.155Z,48.00
2018-07-19T14:49:35.192Z,47.30
2018-07-19T14:52:10.718Z,47.40
2018-07-19T14:54:45.870Z,47.60
2018-07-19T14:57:21.261Z,47.70
2018-07-19T14:59:56.640Z,48.90
2018-07-19T15:02:32.165Z,49.30
2018-07-19T15:05:07.810Z,49.50
2018-07-19T15:07:37.751Z,49.20
2018-07-19T15:10:13.048Z,49.20
2018-07-19T15:12:48.459Z,49.20
2018-07-19T15:15:24.290Z,49.00
2018-07-19T15:17:59.517Z,48.30
2018-07-19T15:20:35.077Z,47.60
2018-07-19T15:23:10.763Z,46.80
2018-07-19T15:25:45.951Z,47.50
2018-07-19T15:28:27.013Z,48.00
2018-07-19T15:31:02.864Z,47.60
2018-07-19T15:33:39.716Z,46.60
2018-07-19T15:36:14.765Z,47.20
2018-07-19T15:38:50.343Z,46.80
2018-07-19T15:41:26.546Z,46.30
2018-07-19T15:44:01.479Z,46.00
2018-07-19T15:46:42.910Z,46.50
2018-07-19T15:49:18.083Z,46.90
2018-07-19T15:51:53.295Z,47.20
2018-07-19T15:54:28.910Z,47.90
2018-07-19T15:57:04.688Z,46.70
2018-07-19T15:59:40.921Z,46.90
2018-07-19T16:02:16.213Z,47.30
2018-07-19T16:04:51.516Z,47.20
2018-07-19T16:07:26.497Z,48.20
2018-07-19T16:10:01.623Z,49.10
2018-07-19T16:12:36.828Z,49.00
2018-07-19T16:15:11.858Z,49.20
2018-07-19T16:17:46.897Z,49.50
2018-07-19T16:20:22.924Z,49.20
2018-07-19T16:22:57.977Z,49.40
2018-07-19T16:25:33.202Z,49.20
2018-07-19T16:28:08.514Z,49.30
2018-07-19T16:30:48.088Z,48.90
2018-07-19T16:33:23.331Z,48.20
2018-07-19T16:35:58.952Z,47.70
2018-07-19T16:38:34.598Z,47.10
2018-07-19T16:41:10.409Z,46.70
2018-07-19T16:43:45.656Z,45.90
2018-07-19T16:46:20.665Z,46.70
2018-07-19T16:48:56.513Z,47.20
2018-07-19T16:51:31.805Z,47.00
2018-07-19T16:54:07.850Z,47.60
2018-07-19T16:56:43.109Z,47.00
2018-07-19T16:59:18.521Z,47.20
2018-07-19T17:01:53.890Z,48.30
2018-07-19T17:04:29.267Z,48.20
2018-07-19T17:07:04.585Z,48.90
2018-07-19T17:09:40.059Z,49.00
2018-07-19T17:12:15.712Z,48.30
2018-07-19T17:14:50.976Z,47.40
2018-07-19T17:17:21.750Z,47.30
2018-07-19T17:20:01.218Z,47.30
2018-07-19T17:22:36.557Z,47.30
2018-07-19T17:25:11.509Z,47.60
2018-07-19T17:27:47.709Z,48.10
2018-07-19T17:30:22.756Z,47.90
2018-07-19T17:32:58.819Z,47.50
2018-07-19T17:35:33.950Z,47.00
2018-07-19T17:38:03.465Z,47.50
2018-07-19T17:40:39.207Z,47.30
2018-07-19T17:43:14.816Z,47.30
2018-07-19T17:45:50.198Z,47.30
2018-07-19T17:48:25.595Z,46.80
2018-07-19T17:51:01.221Z,46.90
2018-07-19T17:53:36.501Z,47.70
2018-07-19T17:56:11.645Z,47.10
2018-07-19T17:58:47.652Z,46.90
2018-07-19T18:01:23.799Z,46.60
2018-07-19T18:03:59.899Z,47.20
2018-07-19T18:06:36.232Z,47.40
2018-07-19T18:09:08.303Z,47.70
2018-07-19T18:11:44.333Z,47.50
2018-07-19T18:14:19.672Z,48.10
2018-07-19T18:16:55.621Z,48.30
2018-07-19T18:19:32.192Z,47.60
2018-07-19T18:22:09.339Z,48.60
2018-07-19T18:24:44.918Z,48.60
2018-07-19T18:27:21.000Z,48.10
2018-07-19T18:29:50.656Z,48.00
2018-07-19T18:32:27.752Z,48.50
2018-07-19T18:35:05.273Z,49.10
2018-07-19T18:37:40.728Z,48.10
2018-07-19T18:40:21.185Z,48.10
2018-07-19T18:42:56.877Z,48.30
2018-07-19T18:45:33.922Z,49.70
2018-07-19T18:48:09.762Z,48.90
2018-07-19T18:50:46.105Z,49.20
2018-07-19T18:53:22.530Z,49.50
2018-07-19T18:55:57.998Z,49.50
2018-07-19T18:58:34.197Z,49.80
2018-07-19T19:01:10.025Z,50.20
2018-07-19T19:03:47.362Z,50.40
2018-07-19T19:06:24.055Z,50.70
2018-07-19T19:09:00.490Z,51.10
2018-07-19T19:11:32.246Z,51.50
2018-07-19T19:16:30.821Z,51.90
2018-07-19T19:19:00.273Z,52.10
2018-07-19T19:21:29.867Z,52.80
2018-07-19T19:23:59.705Z,52.80
2018-07-19T19:26:29.637Z,52.50
2018-07-19T19:28:59.339Z,52.90
2018-07-19T19:31:28.867Z,53.30
2018-07-19T19:36:33.856Z,53.90
2018-07-19T19:39:11.908Z,54.10
2018-07-19T19:41:42.131Z,54.30
2018-07-19T19:44:12.520Z,54.60
2018-07-19T19:46:42.313Z,54.90
2018-07-19T19:49:12.153Z,55.20
2018-07-19T19:51:41.904Z,55.50
2018-07-19T19:54:11.281Z,55.60
2018-07-19T19:56:41.621Z,55.80
2018-07-19T19:59:16.776Z,56.20
2018-07-19T20:01:52.609Z,56.40
2018-07-19T20:04:28.358Z,56.60
2018-07-19T20:06:59.185Z,56.80
2018-07-19T20:09:35.061Z,57.10
2018-07-19T20:12:10.193Z,57.40
2018-07-19T20:14:45.756Z,57.50
2018-07-19T20:17:21.124Z,57.70
2018-07-19T20:19:56.171Z,57.90
2018-07-19T20:22:31.299Z,58.20
2018-07-19T20:25:07.345Z,58.30
2018-07-19T20:27:42.828Z,58.50
2018-07-19T20:30:17.709Z,59.00
2018-07-19T20:32:53.139Z,58.70
2018-07-19T20:35:28.644Z,58.80
2018-07-19T20:38:04.402Z,58.90
2018-07-19T20:40:39.654Z,59.00
2018-07-19T20:43:14.610Z,59.10
2018-07-19T20:45:50.788Z,59.20
2018-07-19T20:48:26.885Z,59.20
2018-07-19T20:51:02.736Z,59.50
2018-07-19T20:53:37.515Z,59.60
2018-07-19T20:56:12.548Z,60.30
2018-07-19T20:58:47.952Z,59.90
2018-07-19T21:01:23.633Z,60.20
2018-07-19T21:03:59.241Z,60.30
2018-07-19T21:06:34.582Z,60.50
2018-07-19T21:09:11.576Z,60.60
2018-07-19T21:11:47.352Z,60.70
2018-07-19T21:14:22.769Z,60.90
2018-07-19T21:16:52.485Z,61.00
2018-07-19T21:19:28.894Z,61.10
2018-07-19T21:22:03.987Z,61.30
2018-07-19T21:24:39.684Z,61.40
2018-07-19T21:27:14.686Z,61.60
2018-07-19T21:32:25.146Z,61.90
2018-07-19T21:35:05.760Z,62.10
2018-07-19T21:37:41.146Z,62.10
2018-07-19T21:45:21.516Z,62.70
2018-07-19T21:47:56.659Z,62.80
2018-07-19T21:50:32.688Z,63.00
2018-07-19T21:53:07.835Z,63.30
2018-07-19T21:55:43.079Z,63.40
2018-07-19T21:58:18.168Z,63.70
2018-07-19T22:00:58.318Z,63.70
2018-07-19T22:03:33.762Z,63.90
2018-07-19T22:06:09.521Z,64.10
2018-07-19T22:08:44.688Z,64.30
2018-07-19T22:13:53.937Z,64.50
2018-07-19T22:16:29.093Z,64.30
2018-07-19T22:19:04.195Z,63.90
2018-07-19T22:21:40.181Z,63.50
2018-07-19T22:24:15.304Z,63.30
2018-07-19T22:26:50.531Z,61.70
2018-07-19T22:29:26.585Z,60.50
2018-07-19T22:32:02.376Z,60.10
2018-07-19T22:34:37.458Z,59.40
2018-07-19T22:37:12.427Z,58.60
2018-07-19T22:39:47.830Z,58.30
2018-07-19T22:44:57.948Z,57.70
2018-07-19T22:47:33.652Z,57.50
2018-07-19T22:50:09.019Z,57.50
2018-07-19T22:52:44.171Z,57.40
2018-07-19T22:55:20.249Z,57.50
2018-07-19T22:57:56.162Z,57.60
2018-07-19T23:00:31.060Z,57.90
2018-07-19T23:03:06.773Z,58.00
2018-07-19T23:05:42.123Z,58.40
2018-07-19T23:08:17.119Z,58.50
2018-07-19T23:10:52.329Z,58.70
2018-07-19T23:13:27.463Z,58.90
2018-07-19T23:18:37.325Z,59.30
2018-07-19T23:21:12.547Z,59.40
2018-07-19T23:23:47.685Z,59.70
2018-07-19T23:28:57.478Z,59.90
2018-07-19T23:31:32.539Z,60.20
2018-07-19T23:34:07.971Z,60.30
2018-07-19T23:37:00.911Z,60.50
2018-07-19T23:39:41.287Z,60.70
2018-07-19T23:42:22.476Z,60.90
2018-07-19T23:47:05.293Z,61.00
2018-07-19T23:49:35.460Z,61.90
2018-07-19T23:52:10.888Z,61.40
2018-07-19T23:54:46.432Z,61.70
2018-07-19T23:57:21.644Z,62.00
2018-07-19T23:59:56.792Z,62.30
